Spalding, Michigan
Current Conditions -  °F | °C
As of 2:55 PM on Saturday 25 Oct 2014 (Local Time) from KESC Reporting Station
Clear Clear  
Wind Chill: 63°   Ceiling: Unl
Heat Index: 63°   Visibility: 10mi
Dew Point: 28°   Wind: 22mph
Humidity: 27%   Direction: 300°WNW
Pressure: 29.69"   Gusts: 29mph
Location:  45.7°N, 87.51°W
Report Text: KESC 251955Z AUTO 30019G25KT 10SM CLR 17/M02 A2969 RMK AO1
Loading
Personal Weather Stations






























Interactive Weather Map
Tropical Storm Tracking
New forecast layout! Learn more

10-Day Weather Forecast

Advertisements
Track Severe Weather on mobile